Time;durP1;ratioP1;P1;durP2;ratioP2;P2;SDS_P1;SDS_P2;PMS_P1;PMS_P2;Temp;Humidity;BMP_temperature;BMP_pressure;BME280_temperature;BME280_humidity;BME280_pressure;Samples;Min_cycle;Max_cycle;Signal;HPM_P1;HPM_P2
2022/11/18 00:01:44;;;;;;;;;;;12.30;97.50;;;;;;5098716;28;19930;-64
2022/11/18 00:04:09;;;;;;;;;;;12.30;97.50;;;;;;5096041;28;19923;-64
2022/11/18 00:06:35;;;;;;;;;;;12.30;97.50;;;;;;5115072;28;19947;-65
2022/11/18 00:09:01;;;;;;;;;;;12.20;97.50;;;;;;5081624;28;19928;-64
2022/11/18 00:14:18;;;;;;;;;;;12.20;97.40;;;;;;5115031;28;19953;-65
2022/11/18 00:16:44;;;;;;;;;;;12.30;97.40;;;;;;5114620;28;19924;-64
2022/11/18 00:19:09;;;;;;;;;;;12.20;97.40;;;;;;5116507;28;19967;-64
2022/11/18 00:21:35;;;;;;;;;;;12.50;97.50;;;;;;5115208;28;20423;-65
2022/11/18 00:24:00;;;;;;;;;;;12.40;97.40;;;;;;5115005;28;19931;-64
2022/11/18 00:26:26;;;;;;;;;;;12.30;97.40;;;;;;5110658;28;20052;-64
2022/11/18 00:28:52;;;;;;;;;;;;;;;;;;5094651;28;19924;-64
2022/11/18 00:31:18;;;;;;;;;;;12.20;97.40;;;;;;5094667;28;19924;-65
2022/11/18 00:33:43;;;;;;;;;;;12.20;97.40;;;;;;5095701;28;19993;-64
2022/11/18 00:36:10;;;;;;;;;;;12.30;97.30;;;;;;5108409;28;19924;-63
2022/11/18 00:38:35;;;;;;;;;;;12.40;97.40;;;;;;5116142;28;19924;-64
2022/11/18 00:41:05;;;;;;;;;;;12.20;97.30;;;;;;5115094;28;20064;-65
2022/11/18 00:43:31;;;;;;;;;;;12.40;97.40;;;;;;5116422;28;20030;-64
2022/11/18 00:45:56;;;;;;;;;;;12.20;97.30;;;;;;5113630;28;20023;-64
2022/11/18 00:48:22;;;;;;;;;;;12.20;97.30;;;;;;5097772;28;19924;-64
2022/11/18 00:50:51;;;;;;;;;;;12.30;97.30;;;;;;5097899;28;20296;-64
2022/11/18 00:53:17;;;;;;;;;;;12.40;97.30;;;;;;5096479;28;20296;-64
2022/11/18 00:55:43;;;;;;;;;;;;;;;;;;5114450;28;19924;-65
2022/11/18 00:58:09;;;;;;;;;;;12.30;97.30;;;;;;5115545;28;20392;-64
2022/11/18 01:00:35;;;;;;;;;;;12.20;97.20;;;;;;5115135;27;19919;-65
2022/11/18 01:03:01;;;;;;;;;;;12.40;97.30;;;;;;5114761;28;19924;-64
2022/11/18 01:05:27;;;;;;;;;;;12.30;97.10;;;;;;5115535;28;20014;-64
2022/11/18 01:07:53;;;;;;;;;;;;;;;;;;5114305;28;19982;-64
2022/11/18 01:10:18;;;;;;;;;;;12.20;97.20;;;;;;5128130;27;19920;-66
2022/11/18 01:15:28;;;;;;;;;;;;;;;;;;5112541;28;19924;-65
2022/11/18 01:17:54;;;;;;;;;;;12.20;97.10;;;;;;5115375;28;19977;-66
2022/11/18 01:20:20;;;;;;;;;;;12.40;97.20;;;;;;5115499;28;19924;-66
2022/11/18 01:22:45;;;;;;;;;;;12.30;97.10;;;;;;5112540;28;19985;-65
2022/11/18 01:25:11;;;;;;;;;;;12.10;97.10;;;;;;5112641;28;19945;-64
2022/11/18 01:27:37;;;;;;;;;;;12.30;97.10;;;;;;5113885;28;19924;-64
2022/11/18 01:30:02;;;;;;;;;;;12.10;97.00;;;;;;5111306;28;19924;-64
2022/11/18 01:32:28;;;;;;;;;;;;;;;;;;5111440;28;19924;-64
2022/11/18 01:34:54;;;;;;;;;;;;;;;;;;5114107;28;19928;-65
2022/11/18 01:37:20;;;;;;;;;;;12.40;97.00;;;;;;5112386;28;20026;-66
2022/11/18 01:39:46;;;;;;;;;;;12.00;97.00;;;;;;5114073;28;19924;-66
2022/11/18 01:42:14;;;;;;;;;;;12.10;97.00;;;;;;5111640;28;20377;-66
2022/11/18 01:44:59;;;;;;;;;;;12.10;97.10;;;;;;5113673;28;19924;-66
2022/11/18 01:47:26;;;;;;;;;;;12.20;97.10;;;;;;5113697;28;19931;-65
2022/11/18 01:49:51;;;;;;;;;;;12.10;97.10;;;;;;5093058;28;19931;-64
2022/11/18 01:52:17;;;;;;;;;;;12.20;97.00;;;;;;5089465;28;19924;-63
2022/11/18 01:54:43;;;;;;;;;;;12.10;96.80;;;;;;5098068;28;19924;-64
2022/11/18 01:57:10;;;;;;;;;;;12.20;97.10;;;;;;5113888;28;20273;-65
2022/11/18 01:59:36;;;;;;;;;;;12.30;97.10;;;;;;5111673;28;19924;-64
2022/11/18 02:02:03;;;;;;;;;;;12.20;96.80;;;;;;5112606;28;19930;-64
2022/11/18 02:04:29;;;;;;;;;;;12.30;97.10;;;;;;5095633;28;19930;-64
2022/11/18 02:06:54;;;;;;;;;;;12.30;97.10;;;;;;5092134;28;19924;-65
2022/11/18 02:09:20;;;;;;;;;;;12.30;97.10;;;;;;5112643;28;19959;-66
2022/11/18 02:11:55;;;;;;;;;;;;;;;;;;5113235;28;19998;-65
2022/11/18 02:14:25;;;;;;;;;;;12.30;97.10;;;;;;5111365;28;20350;-66
2022/11/18 02:17:00;;;;;;;;;;;12.20;97.10;;;;;;5114755;28;19927;-66
2022/11/18 02:19:44;;;;;;;;;;;12.50;97.10;;;;;;5111995;28;20306;-64
2022/11/18 02:22:34;;;;;;;;;;;12.10;97.00;;;;;;5111908;28;19930;-65
2022/11/18 02:25:18;;;;;;;;;;;12.50;97.10;;;;;;5091353;28;19924;-64
2022/11/18 02:27:44;;;;;;;;;;;;;;;;;;5112316;28;19972;-64
2022/11/18 02:30:10;;;;;;;;;;;12.40;97.10;;;;;;5111926;28;19930;-65
2022/11/18 02:32:36;;;;;;;;;;;12.10;97.00;;;;;;5112944;28;19924;-64
2022/11/18 02:35:06;;;;;;;;;;;12.30;96.70;;;;;;5110621;28;20065;-66
2022/11/18 02:37:33;;;;;;;;;;;12.50;97.10;;;;;;5079184;28;19923;-64
2022/11/18 02:40:01;;;;;;;;;;;12.20;96.90;;;;;;5112113;28;19923;-64
2022/11/18 02:42:27;;;;;;;;;;;12.20;96.90;;;;;;5106835;28;20344;-65
2022/11/18 02:44:54;;;;;;;;;;;12.40;96.90;;;;;;5099394;28;19923;-64
2022/11/18 02:47:20;;;;;;;;;;;12.40;97.00;;;;;;5111377;28;19928;-64
2022/11/18 02:49:46;;;;;;;;;;;12.10;96.90;;;;;;5112614;28;19968;-65
2022/11/18 02:52:12;;;;;;;;;;;12.40;96.90;;;;;;5091482;28;20041;-64
2022/11/18 02:54:38;;;;;;;;;;;;;;;;;;5091865;28;19928;-64
2022/11/18 02:57:04;;;;;;;;;;;12.40;96.90;;;;;;5113268;28;20389;-65
2022/11/18 02:59:29;;;;;;;;;;;12.10;96.80;;;;;;5096059;28;19923;-64
2022/11/18 03:01:55;;;;;;;;;;;12.30;96.90;;;;;;5108301;28;19923;-64
2022/11/18 03:04:21;;;;;;;;;;;12.40;96.90;;;;;;5112993;28;19931;-65
2022/11/18 03:06:54;;;;;;;;;;;12.20;96.60;;;;;;5111769;28;19931;-64
2022/11/18 03:09:22;;;;;;;;;;;12.30;96.90;;;;;;5094370;28;19932;-64
2022/11/18 03:12:10;;;;;;;;;;;12.30;96.90;;;;;;5112770;28;19981;-65
2022/11/18 03:14:45;;;;;;;;;;;12.10;96.80;;;;;;5100269;28;20385;-65
2022/11/18 03:17:14;;;;;;;;;;;12.10;96.80;;;;;;5111388;28;20022;-65
2022/11/18 03:19:52;;;;;;;;;;;12.40;96.90;;;;;;5112386;28;19930;-65
2022/11/18 03:22:27;;;;;;;;;;;12.10;96.80;;;;;;5111423;28;20008;-64
2022/11/18 03:25:13;;;;;;;;;;;12.20;96.90;;;;;;5095442;28;19927;-65
2022/11/18 03:27:51;;;;;;;;;;;12.20;96.80;;;;;;5069457;28;19991;-65
2022/11/18 03:30:18;;;;;;;;;;;12.20;96.80;;;;;;5112534;28;19928;-65
2022/11/18 03:32:44;;;;;;;;;;;12.30;96.80;;;;;;5109236;28;19927;-66
2022/11/18 03:35:11;;;;;;;;;;;12.20;96.80;;;;;;5105692;28;19925;-66
2022/11/18 03:37:37;;;;;;;;;;;12.40;96.80;;;;;;5098474;28;19999;-64
2022/11/18 03:40:05;;;;;;;;;;;12.10;96.80;;;;;;5116177;28;20011;-65
2022/11/18 03:42:35;;;;;;;;;;;12.10;96.70;;;;;;5114122;28;19924;-64
2022/11/18 03:45:02;;;;;;;;;;;12.30;96.80;;;;;;5117499;28;19959;-64
2022/11/18 03:47:28;;;;;;;;;;;;;;;;;;5114913;28;19928;-66
2022/11/18 03:50:05;;;;;;;;;;;11.90;96.70;;;;;;5115057;28;19946;-65
2022/11/18 03:52:31;;;;;;;;;;;12.30;96.80;;;;;;5111798;28;19924;-65
2022/11/18 03:54:57;;;;;;;;;;;12.30;96.80;;;;;;5114113;28;19969;-64
2022/11/18 03:57:24;;;;;;;;;;;12.10;96.70;;;;;;5115793;28;19928;-64
2022/11/18 03:59:55;;;;;;;;;;;12.00;96.60;;;;;;5112766;28;19924;-64
2022/11/18 04:02:24;;;;;;;;;;;12.30;96.70;;;;;;5113770;28;19930;-64
2022/11/18 04:04:50;;;;;;;;;;;12.00;96.60;;;;;;5098158;28;19969;-64
2022/11/18 04:07:16;;;;;;;;;;;;;;;;;;5097349;28;20284;-66
2022/11/18 04:09:44;;;;;;;;;;;12.20;96.60;;;;;;5114574;28;20350;-67
2022/11/18 04:12:10;;;;;;;;;;;12.40;96.70;;;;;;5096128;28;20461;-66
2022/11/18 04:14:36;;;;;;;;;;;12.40;96.70;;;;;;5098827;28;19946;-64
2022/11/18 04:17:15;;;;;;;;;;;12.10;96.60;;;;;;5114581;28;19931;-64
2022/11/18 04:19:41;;;;;;;;;;;;;;;;;;5114395;28;19927;-65
2022/11/18 04:22:07;;;;;;;;;;;12.30;96.70;;;;;;5104925;28;19923;-65
2022/11/18 04:24:32;;;;;;;;;;;12.00;96.60;;;;;;5114209;28;19946;-65
2022/11/18 04:26:58;;;;;;;;;;;12.10;96.70;;;;;;5116929;28;19924;-64
2022/11/18 04:29:24;;;;;;;;;;;12.30;96.70;;;;;;5114239;28;19924;-65
2022/11/18 04:31:50;;;;;;;;;;;;;;;;;;5112555;28;19923;-64
2022/11/18 04:34:15;;;;;;;;;;;12.00;96.50;;;;;;5113214;28;19931;-65
2022/11/18 04:36:41;;;;;;;;;;;12.30;96.60;;;;;;5115915;28;19928;-65
2022/11/18 04:39:07;;;;;;;;;;;12.20;96.60;;;;;;5114972;27;19924;-64
2022/11/18 04:44:17;;;;;;;;;;;12.10;96.60;;;;;;5115047;28;19924;-64
2022/11/18 04:46:43;;;;;;;;;;;11.90;96.50;;;;;;5114690;28;19924;-65
2022/11/18 04:49:09;;;;;;;;;;;12.30;96.60;;;;;;5115907;28;19978;-65
2022/11/18 04:51:34;;;;;;;;;;;12.40;96.60;;;;;;5112393;28;19977;-63
2022/11/18 04:54:00;;;;;;;;;;;12.50;96.60;;;;;;5116422;28;19927;-64
2022/11/18 04:56:26;;;;;;;;;;;12.20;96.60;;;;;;5113790;28;20335;-64
2022/11/18 04:58:51;;;;;;;;;;;12.20;96.60;;;;;;5114427;28;19977;-65
2022/11/18 05:01:17;;;;;;;;;;;12.10;96.50;;;;;;5113411;28;19924;-64
2022/11/18 05:03:42;;;;;;;;;;;12.10;96.50;;;;;;5111075;28;19928;-65
2022/11/18 05:06:08;;;;;;;;;;;12.30;96.50;;;;;;5115924;28;19928;-64
2022/11/18 05:08:34;;;;;;;;;;;12.20;96.50;;;;;;5113499;28;19928;-64
2022/11/18 05:12:47;;;;;;;;;;;12.10;96.50;;;;;;5114368;28;19930;-64
2022/11/18 05:13:45;;;;;;;;;;;12.20;96.50;;;;;;5114223;28;19924;-64
2022/11/18 05:16:10;;;;;;;;;;;12.10;96.50;;;;;;5114518;28;19946;-64
2022/11/18 05:18:36;;;;;;;;;;;12.30;96.50;;;;;;5113069;28;19939;-64
2022/11/18 05:21:05;;;;;;;;;;;12.20;96.50;;;;;;5114147;28;19931;-64
2022/11/18 05:23:30;;;;;;;;;;;12.20;96.50;;;;;;5107795;28;19924;-64
2022/11/18 05:25:56;;;;;;;;;;;12.10;96.50;;;;;;5094942;28;19931;-65
2022/11/18 05:28:21;;;;;;;;;;;11.90;96.40;;;;;;5100190;28;20018;-63
2022/11/18 05:30:47;;;;;;;;;;;12.40;96.50;;;;;;5113195;28;19924;-64
2022/11/18 05:33:13;;;;;;;;;;;;;;;;;;5110136;28;20018;-65
2022/11/18 05:35:39;;;;;;;;;;;12.10;96.40;;;;;;5114207;28;20369;-64
2022/11/18 05:38:05;;;;;;;;;;;;;;;;;;5113730;28;19970;-64
2022/11/18 05:40:30;;;;;;;;;;;12.30;96.50;;;;;;5111993;28;20373;-65
2022/11/18 05:43:11;;;;;;;;;;;12.20;96.40;;;;;;5113063;28;19924;-64
2022/11/18 05:45:37;;;;;;;;;;;12.10;96.50;;;;;;5113580;28;19988;-64
2022/11/18 05:48:03;;;;;;;;;;;12.30;96.50;;;;;;5113301;28;19935;-64
2022/11/18 05:50:30;;;;;;;;;;;12.30;96.50;;;;;;5113402;28;19992;-63
2022/11/18 05:52:56;;;;;;;;;;;;;;;;;;5114148;28;20319;-67
2022/11/18 05:55:23;;;;;;;;;;;12.20;96.40;;;;;;5093461;28;19924;-65
2022/11/18 05:57:49;;;;;;;;;;;12.10;96.40;;;;;;5094518;28;20007;-65
2022/11/18 06:00:15;;;;;;;;;;;12.00;96.40;;;;;;5111820;28;19966;-65
2022/11/18 06:02:40;;;;;;;;;;;12.10;96.40;;;;;;5110270;28;19924;-65
2022/11/18 06:05:06;;;;;;;;;;;12.20;96.40;;;;;;5111266;28;20019;-64
2022/11/18 06:07:35;;;;;;;;;;;12.00;96.40;;;;;;5113300;28;20018;-64
2022/11/18 06:10:01;;;;;;;;;;;12.00;96.40;;;;;;5108932;28;19923;-64
2022/11/18 06:12:29;;;;;;;;;;;12.00;96.40;;;;;;5114429;28;19931;-63
2022/11/18 06:14:56;;;;;;;;;;;12.40;96.50;;;;;;5112803;28;19924;-64
2022/11/18 06:17:23;;;;;;;;;;;12.20;96.50;;;;;;5114715;28;20026;-64
2022/11/18 06:19:49;;;;;;;;;;;12.10;96.40;;;;;;5111662;28;20006;-65
2022/11/18 06:22:15;;;;;;;;;;;12.10;96.40;;;;;;5112639;28;20016;-64
2022/11/18 06:24:40;;;;;;;;;;;12.10;96.40;;;;;;5111157;28;19919;-65
2022/11/18 06:27:06;;;;;;;;;;;12.40;96.40;;;;;;5113870;28;19938;-64
2022/11/18 06:29:32;;;;;;;;;;;12.20;96.40;;;;;;5113245;28;20376;-64
2022/11/18 06:31:57;;;;;;;;;;;12.10;96.40;;;;;;5115091;28;20007;-64
2022/11/18 06:34:23;;;;;;;;;;;12.40;96.40;;;;;;5111162;28;19928;-64
2022/11/18 06:36:49;;;;;;;;;;;12.10;96.30;;;;;;5111199;28;19924;-64
2022/11/18 06:39:14;;;;;;;;;;;11.90;96.20;;;;;;5110384;28;19923;-63
2022/11/18 06:41:40;;;;;;;;;;;12.30;96.30;;;;;;5094180;28;19964;-64
2022/11/18 06:44:05;;;;;;;;;;;12.10;96.30;;;;;;5110222;28;19927;-63
2022/11/18 06:49:16;;;;;;;;;;;;;;;;;;5098230;28;19931;-65
2022/11/18 06:51:41;;;;;;;;;;;12.30;96.40;;;;;;5108465;28;19970;-64
2022/11/18 06:54:07;;;;;;;;;;;;;;;;;;5096351;28;19924;-65
2022/11/18 06:56:33;;;;;;;;;;;11.90;96.20;;;;;;5111527;28;19974;-64
2022/11/18 06:58:59;;;;;;;;;;;;;;;;;;5111283;28;20026;-66
2022/11/18 07:01:25;;;;;;;;;;;12.10;96.30;;;;;;5114297;28;20337;-65
2022/11/18 07:03:51;;;;;;;;;;;12.00;96.20;;;;;;5113234;28;19930;-65
2022/11/18 07:06:21;;;;;;;;;;;11.90;96.20;;;;;;5110730;28;19924;-64
2022/11/18 07:08:46;;;;;;;;;;;12.00;96.20;;;;;;5110644;28;20385;-64
2022/11/18 07:11:13;;;;;;;;;;;11.80;96.10;;;;;;5078671;28;19976;-65
2022/11/18 07:13:39;;;;;;;;;;;12.10;96.10;;;;;;5114223;28;19976;-66
2022/11/18 07:16:05;;;;;;;;;;;11.90;96.20;;;;;;5111315;28;20416;-65
2022/11/18 07:18:34;;;;;;;;;;;12.20;96.30;;;;;;5118074;28;19942;-64
2022/11/18 07:21:01;;;;;;;;;;;12.10;96.20;;;;;;5116126;28;20054;-64
2022/11/18 07:23:27;;;;;;;;;;;12.10;96.30;;;;;;5116459;28;19924;-65
2022/11/18 07:25:53;;;;;;;;;;;12.20;96.20;;;;;;5113461;28;19969;-64
2022/11/18 07:28:19;;;;;;;;;;;12.10;96.20;;;;;;5117721;28;19924;-64
2022/11/18 07:30:45;;;;;;;;;;;12.30;96.10;;;;;;5115619;28;20444;-64
2022/11/18 07:33:11;;;;;;;;;;;12.30;96.20;;;;;;5113128;28;19931;-64
2022/11/18 07:35:36;;;;;;;;;;;12.20;96.10;;;;;;5114306;28;20300;-64
2022/11/18 07:38:02;;;;;;;;;;;12.10;96.20;;;;;;5114472;28;20354;-64
2022/11/18 07:40:27;;;;;;;;;;;12.20;96.20;;;;;;5116308;28;19931;-64
2022/11/18 07:42:53;;;;;;;;;;;12.10;96.20;;;;;;5116462;28;19974;-65
2022/11/18 07:45:19;;;;;;;;;;;12.20;96.20;;;;;;5113726;28;19976;-63
2022/11/18 07:47:45;;;;;;;;;;;;;;;;;;5116079;28;19923;-65
2022/11/18 07:50:10;;;;;;;;;;;12.00;96.20;;;;;;5116997;28;19931;-65
2022/11/18 07:52:36;;;;;;;;;;;12.30;96.30;;;;;;5115078;28;19923;-65
2022/11/18 07:55:02;;;;;;;;;;;12.20;96.30;;;;;;5116195;28;20365;-65
2022/11/18 07:57:28;;;;;;;;;;;;;;;;;;5114617;28;19977;-63
2022/11/18 07:59:53;;;;;;;;;;;12.20;96.20;;;;;;5114739;28;19932;-63
2022/11/18 08:02:19;;;;;;;;;;;12.00;96.10;;;;;;5116736;28;19924;-64
2022/11/18 08:04:45;;;;;;;;;;;12.20;96.10;;;;;;5110161;28;19931;-63
2022/11/18 08:07:10;;;;;;;;;;;12.30;96.20;;;;;;5117114;28;19923;-65
2022/11/18 08:09:36;;;;;;;;;;;12.40;96.10;;;;;;5095890;28;20364;-64
2022/11/18 08:12:01;;;;;;;;;;;12.30;96.00;;;;;;5110973;28;20388;-64
2022/11/18 08:14:27;;;;;;;;;;;12.10;95.90;;;;;;5091405;28;19927;-64
2022/11/18 08:16:53;;;;;;;;;;;12.40;96.00;;;;;;5097189;28;19927;-65
2022/11/18 08:19:19;;;;;;;;;;;12.20;96.00;;;;;;5116450;28;19928;-63
2022/11/18 08:21:45;;;;;;;;;;;12.10;96.10;;;;;;5115890;28;19977;-63
2022/11/18 08:24:10;;;;;;;;;;;12.40;96.20;;;;;;5113143;28;19923;-65
2022/11/18 08:26:36;;;;;;;;;;;12.40;96.20;;;;;;5116114;28;19930;-64
2022/11/18 08:29:02;;;;;;;;;;;12.60;96.30;;;;;;5116705;28;20002;-65
2022/11/18 08:31:28;;;;;;;;;;;;;;;;;;5115468;28;19924;-63
2022/11/18 08:33:54;;;;;;;;;;;12.50;96.30;;;;;;5116691;28;19927;-65
2022/11/18 08:36:20;;;;;;;;;;;12.30;96.20;;;;;;5115400;28;19931;-68
2022/11/18 08:38:46;;;;;;;;;;;12.50;96.20;;;;;;5115001;28;19920;-64
2022/11/18 08:41:16;;;;;;;;;;;12.40;96.20;;;;;;5096221;28;20266;-65
2022/11/18 08:43:41;;;;;;;;;;;12.30;96.20;;;;;;5114881;28;20392;-63
2022/11/18 08:46:07;;;;;;;;;;;12.60;96.20;;;;;;5096793;28;19928;-65
2022/11/18 08:48:32;;;;;;;;;;;12.40;96.20;;;;;;5096657;28;19927;-64
2022/11/18 08:50:58;;;;;;;;;;;12.40;96.30;;;;;;5114894;28;19927;-65
2022/11/18 08:53:24;;;;;;;;;;;12.30;96.30;;;;;;5115713;28;19928;-66
2022/11/18 08:55:56;;;;;;;;;;;12.50;96.30;;;;;;5114111;28;19931;-63
2022/11/18 08:58:22;;;;;;;;;;;12.40;96.30;;;;;;5114108;28;19931;-64
2022/11/18 09:00:47;;;;;;;;;;;12.40;96.30;;;;;;5114267;28;19924;-67
2022/11/18 09:03:13;;;;;;;;;;;12.40;96.30;;;;;;5115718;28;19934;-66
2022/11/18 09:05:40;;;;;;;;;;;12.50;96.20;;;;;;5113962;28;19928;-66
2022/11/18 09:08:07;;;;;;;;;;;12.20;96.20;;;;;;5114806;28;20022;-64
2022/11/18 09:10:33;;;;;;;;;;;12.30;96.20;;;;;;5115765;28;19989;-64
2022/11/18 09:12:59;;;;;;;;;;;12.50;96.30;;;;;;5115587;28;20019;-63
2022/11/18 09:15:28;;;;;;;;;;;12.30;96.10;;;;;;5115488;28;20018;-64
2022/11/18 09:17:55;;;;;;;;;;;12.10;96.10;;;;;;5114365;28;19923;-64
2022/11/18 09:20:21;;;;;;;;;;;12.10;96.10;;;;;;5115341;28;19947;-65
2022/11/18 09:22:47;;;;;;;;;;;12.30;96.10;;;;;;5114496;28;19966;-64
2022/11/18 09:25:12;;;;;;;;;;;12.30;96.10;;;;;;5115128;28;19928;-63
2022/11/18 09:27:38;;;;;;;;;;;12.30;96.10;;;;;;5114564;28;19953;-64
2022/11/18 09:30:04;;;;;;;;;;;12.20;96.20;;;;;;5114215;28;19953;-63
2022/11/18 09:32:30;;;;;;;;;;;12.50;96.20;;;;;;5114329;28;20299;-64
2022/11/18 09:34:56;;;;;;;;;;;12.40;96.20;;;;;;5106320;28;19953;-65
2022/11/18 09:37:22;;;;;;;;;;;12.10;96.10;;;;;;5107484;28;20490;-64
2022/11/18 09:39:48;;;;;;;;;;;12.00;96.10;;;;;;5114572;28;19924;-64
2022/11/18 09:42:14;;;;;;;;;;;;;;;;;;5115299;28;19927;-67
2022/11/18 09:44:39;;;;;;;;;;;12.20;96.20;;;;;;5113578;28;19930;-65
2022/11/18 09:47:05;;;;;;;;;;;12.30;96.20;;;;;;5112826;28;19923;-64
2022/11/18 09:49:31;;;;;;;;;;;12.10;96.10;;;;;;5113035;28;20007;-64
2022/11/18 09:52:00;;;;;;;;;;;11.90;96.10;;;;;;5113651;28;20393;-64
2022/11/18 09:54:27;;;;;;;;;;;12.00;96.10;;;;;;5114941;28;19946;-64
2022/11/18 09:56:53;;;;;;;;;;;12.20;96.10;;;;;;5111419;28;19927;-68
2022/11/18 09:59:20;;;;;;;;;;;12.10;96.00;;;;;;5094238;28;20036;-65
2022/11/18 10:01:48;;;;;;;;;;;12.00;96.00;;;;;;5114816;28;19923;-64
2022/11/18 10:04:17;;;;;;;;;;;12.00;96.00;;;;;;5114198;28;19927;-64
2022/11/18 10:06:45;;;;;;;;;;;12.00;96.00;;;;;;5113290;28;19931;-64
2022/11/18 10:09:30;;;;;;;;;;;12.10;96.20;;;;;;5097732;28;19969;-65
2022/11/18 10:12:15;;;;;;;;;;;12.30;96.60;;;;;;5093784;28;20376;-66
2022/11/18 10:14:41;;;;;;;;;;;;;;;;;;5093869;28;19968;-65
2022/11/18 10:17:18;;;;;;;;;;;12.30;96.50;;;;;;5107171;28;19963;-67
2022/11/18 10:19:44;;;;;;;;;;;12.40;96.30;;;;;;5108093;28;20014;-66
2022/11/18 10:22:10;;;;;;;;;;;;;;;;;;5113390;28;20373;-68
2022/11/18 10:24:36;;;;;;;;;;;12.40;96.00;;;;;;5114231;28;19970;-66
2022/11/18 10:27:07;;;;;;;;;;;12.20;95.90;;;;;;5113317;28;19977;-68
2022/11/18 10:29:32;;;;;;;;;;;12.30;95.80;;;;;;5096140;28;19928;-67
2022/11/18 10:32:19;;;;;;;;;;;12.00;95.70;;;;;;5114549;28;20023;-66
2022/11/18 10:34:48;;;;;;;;;;;12.10;95.70;;;;;;5109821;28;19923;-66
2022/11/18 10:37:23;;;;;;;;;;;12.10;95.60;;;;;;5083293;28;19924;-67
2022/11/18 10:39:50;;;;;;;;;;;12.30;95.70;;;;;;5108244;28;19920;-65
2022/11/18 10:42:17;;;;;;;;;;;12.20;95.80;;;;;;5111638;28;19924;-67
2022/11/18 10:44:43;;;;;;;;;;;12.20;95.80;;;;;;5095922;28;19932;-67
2022/11/18 10:47:09;;;;;;;;;;;;;;;;;;5107159;28;20303;-65
2022/11/18 10:49:36;;;;;;;;;;;;;;;;;;5096383;28;19950;-65
2022/11/18 10:52:11;;;;;;;;;;;12.40;95.80;;;;;;5096552;28;19925;-64
2022/11/18 10:54:37;;;;;;;;;;;11.80;95.60;;;;;;5104358;28;19931;-66
2022/11/18 10:57:13;;;;;;;;;;;12.20;95.80;;;;;;5100051;28;19923;-65
2022/11/18 10:59:39;;;;;;;;;;;;;;;;;;5109634;28;19924;-65
2022/11/18 11:02:05;;;;;;;;;;;;;;;;;;5098378;28;19964;-65
2022/11/18 11:04:31;;;;;;;;;;;12.30;95.70;;;;;;5112459;28;19923;-69
2022/11/18 11:06:57;;;;;;;;;;;11.90;95.60;;;;;;5112441;28;20275;-65
2022/11/18 11:09:26;;;;;;;;;;;12.00;95.50;;;;;;5097957;28;19928;-65
2022/11/18 11:11:56;;;;;;;;;;;11.90;95.60;;;;;;5100889;28;19930;-71
2022/11/18 11:14:23;;;;;;;;;;;12.00;96.10;;;;;;5096235;28;19924;-65
2022/11/18 11:16:49;;;;;;;;;;;;;;;;;;5095630;28;19932;-65
2022/11/18 11:19:16;;;;;;;;;;;12.00;95.40;;;;;;5100552;28;19924;-65
2022/11/18 11:21:41;;;;;;;;;;;12.00;95.50;;;;;;5090013;28;19928;-65
2022/11/18 11:24:11;;;;;;;;;;;12.00;95.50;;;;;;5096012;28;19928;-66
2022/11/18 11:26:45;;;;;;;;;;;11.80;95.20;;;;;;5097746;28;19928;-66
2022/11/18 11:29:14;;;;;;;;;;;11.90;95.40;;;;;;5096235;28;19963;-65
2022/11/18 11:31:52;;;;;;;;;;;11.80;95.40;;;;;;5110678;28;19923;-63
2022/11/18 11:34:23;;;;;;;;;;;11.80;95.40;;;;;;5110299;28;19947;-63
2022/11/18 11:36:50;;;;;;;;;;;11.60;95.30;;;;;;5095775;28;19930;-67
2022/11/18 11:39:16;;;;;;;;;;;;;;;;;;5088753;28;19947;-66
2022/11/18 11:42:02;;;;;;;;;;;12.00;95.40;;;;;;5102494;28;20039;-64
2022/11/18 11:44:28;;;;;;;;;;;;;;;;;;5067414;28;20433;-64
2022/11/18 11:50:00;;;;;;;;;;;12.00;95.70;;;;;;5104017;28;19929;-67
2022/11/18 11:52:26;;;;;;;;;;;11.70;95.50;;;;;;5111281;28;19930;-68
2022/11/18 11:55:12;;;;;;;;;;;11.70;95.40;;;;;;5115917;28;20014;-69
2022/11/18 11:57:57;;;;;;;;;;;12.00;95.40;;;;;;5097649;28;19963;-71
2022/11/18 12:00:23;;;;;;;;;;;12.10;95.50;;;;;;5107147;28;19932;-69
2022/11/18 12:02:49;;;;;;;;;;;;;;;;;;5095070;28;20392;-66
2022/11/18 12:05:22;;;;;;;;;;;11.90;95.30;;;;;;5096474;28;20040;-69
2022/11/18 12:07:52;;;;;;;;;;;11.80;95.30;;;;;;5095937;28;19978;-66
2022/11/18 12:10:26;;;;;;;;;;;12.00;95.40;;;;;;5079838;28;20297;-68
2022/11/18 12:13:07;;;;;;;;;;;11.70;95.20;;;;;;5095572;28;19938;-67
2022/11/18 12:15:44;;;;;;;;;;;11.80;95.30;;;;;;5095575;28;19935;-67
2022/11/18 12:18:10;;;;;;;;;;;12.00;95.30;;;;;;5101036;28;19924;-68
2022/11/18 12:20:36;;;;;;;;;;;;;;;;;;5102893;28;19924;-69
2022/11/18 12:23:12;;;;;;;;;;;11.90;95.20;;;;;;5114841;28;20233;-67
2022/11/18 12:25:47;;;;;;;;;;;11.80;95.20;;;;;;5116684;28;19924;-67
2022/11/18 12:28:28;;;;;;;;;;;11.80;95.30;;;;;;5116513;28;20454;-70
2022/11/18 12:31:12;;;;;;;;;;;11.70;95.20;;;;;;5111023;28;19924;-70
2022/11/18 12:33:57;;;;;;;;;;;11.60;95.20;;;;;;5111005;27;19928;-64
2022/11/18 12:36:29;;;;;;;;;;;11.90;95.20;;;;;;5095208;28;20037;-63
2022/11/18 12:38:55;;;;;;;;;;;11.70;95.20;;;;;;5087317;28;19923;-65
2022/11/18 12:43:45;;;;;;;;;;;;;;;;;;5092986;28;19932;-66
2022/11/18 12:44:08;;;;;;;;;;;11.70;95.10;;;;;;5099173;28;19928;-63
2022/11/18 12:46:34;;;;;;;;;;;11.70;95.10;;;;;;5093624;28;19935;-68
2022/11/18 12:49:18;;;;;;;;;;;11.80;95.00;;;;;;5096735;28;19929;-64
2022/11/18 12:51:45;;;;;;;;;;;11.80;95.00;;;;;;5098013;28;19979;-64
2022/11/18 12:54:30;;;;;;;;;;;11.80;95.10;;;;;;5088668;28;19924;-65
2022/11/18 12:56:57;;;;;;;;;;;11.80;94.90;;;;;;5077298;28;19928;-66
2022/11/18 12:59:26;;;;;;;;;;;11.90;94.80;;;;;;5077086;28;19967;-68
2022/11/18 13:02:10;;;;;;;;;;;11.50;94.60;;;;;;5102498;28;19977;-66
2022/11/18 13:04:36;;;;;;;;;;;11.50;94.30;;;;;;5105075;28;20413;-69
2022/11/18 13:07:02;;;;;;;;;;;11.60;94.20;;;;;;5102509;28;20029;-65
2022/11/18 13:09:34;;;;;;;;;;;11.10;94.30;;;;;;5090785;28;19924;-65
2022/11/18 13:12:00;;;;;;;;;;;;;;;;;;5106562;28;20015;-69
2022/11/18 13:20:26;;;;;;;;;;;11.10;94.90;;;;;;5090823;28;19924;-69
2022/11/18 13:25:37;;;;;;;;;;;11.30;94.90;;;;;;5120291;27;20003;-70
2022/11/18 13:28:03;;;;;;;;;;;;;;;;;;5094721;28;20002;-71
2022/11/18 13:30:29;;;;;;;;;;;11.30;94.90;;;;;;5094897;28;19967;-66
2022/11/18 13:32:55;;;;;;;;;;;;;;;;;;5092596;28;19924;-70
2022/11/18 13:35:21;;;;;;;;;;;10.90;94.70;;;;;;5098944;27;19931;-64
2022/11/18 13:37:54;;;;;;;;;;;11.30;94.90;;;;;;5085308;28;19928;-65
2022/11/18 13:40:25;;;;;;;;;;;11.10;94.80;;;;;;5089754;28;19924;-65
2022/11/18 13:42:51;;;;;;;;;;;;;;;;;;5079612;28;20700;-66
2022/11/18 13:45:16;;;;;;;;;;;11.20;94.90;;;;;;5095794;28;19924;-64
2022/11/18 13:47:43;;;;;;;;;;;11.20;94.80;;;;;;5106023;28;20403;-65
2022/11/18 13:50:09;;;;;;;;;;;11.20;94.90;;;;;;5109063;28;19931;-65
2022/11/18 13:52:35;;;;;;;;;;;11.20;94.90;;;;;;5110075;28;19923;-65
2022/11/18 13:55:01;;;;;;;;;;;;;;;;;;5101635;28;20407;-70
2022/11/18 13:57:27;;;;;;;;;;;11.20;94.80;;;;;;5103747;28;19957;-64
2022/11/18 13:59:53;;;;;;;;;;;11.20;94.80;;;;;;5109635;28;20381;-67
2022/11/18 14:02:19;;;;;;;;;;;11.20;94.70;;;;;;5092201;28;20381;-69
2022/11/18 14:04:45;;;;;;;;;;;;;;;;;;5090862;28;19930;-67
2022/11/18 14:07:26;;;;;;;;;;;11.40;94.90;;;;;;5093581;28;20339;-68
2022/11/18 14:09:53;;;;;;;;;;;11.30;94.90;;;;;;5093673;28;19924;-69
2022/11/18 14:12:18;;;;;;;;;;;11.20;94.80;;;;;;5106163;28;20315;-68
2022/11/18 14:14:45;;;;;;;;;;;11.50;94.90;;;;;;5114767;28;19924;-68
2022/11/18 14:17:21;;;;;;;;;;;11.60;94.90;;;;;;5103437;28;19973;-69
2022/11/18 14:19:47;;;;;;;;;;;11.10;94.80;;;;;;5092919;28;20396;-68
2022/11/18 14:22:33;;;;;;;;;;;11.60;94.80;;;;;;5075339;28;19924;-71
2022/11/18 14:24:59;;;;;;;;;;;;;;;;;;5092259;28;19924;-72
2022/11/18 14:27:35;;;;;;;;;;;11.30;94.70;;;;;;5103429;28;19924;-74
2022/11/18 14:30:02;;;;;;;;;;;11.50;94.70;;;;;;5093090;28;19931;-68
2022/11/18 14:32:28;;;;;;;;;;;11.40;94.70;;;;;;5093553;28;19931;-69
2022/11/18 14:34:58;;;;;;;;;;;11.30;94.70;;;;;;5110238;28;20389;-66
2022/11/18 14:37:23;;;;;;;;;;;11.40;94.70;;;;;;5111707;28;20049;-69
2022/11/18 14:39:49;;;;;;;;;;;;;;;;;;5113253;28;19995;-72
2022/11/18 14:42:15;;;;;;;;;;;;;;;;;;5113284;28;19931;-68
2022/11/18 14:44:41;;;;;;;;;;;;;;;;;;5112904;28;19939;-66
2022/11/18 14:47:14;;;;;;;;;;;11.50;94.50;;;;;;5099575;28;19932;-66
2022/11/18 14:49:40;;;;;;;;;;;11.60;94.60;;;;;;5056731;28;19924;-67
2022/11/18 14:52:08;;;;;;;;;;;11.40;94.50;;;;;;5075860;28;19932;-68
2022/11/18 14:54:34;;;;;;;;;;;11.40;94.40;;;;;;5070237;28;20404;-68
2022/11/18 14:57:00;;;;;;;;;;;11.30;94.30;;;;;;5089584;28;19924;-67
2022/11/18 14:59:25;;;;;;;;;;;11.70;94.40;;;;;;5090697;28;19924;-69
2022/11/18 15:01:51;;;;;;;;;;;11.70;94.40;;;;;;5092470;28;19924;-67